Terminal Aerodrome Forecast
Issued by NWS Sterling, VA

Current Version | Previous Version | Graphics & Text | Print | Product List | Glossary On
Versions: 1 2 3 4 5 6 7 8 9 10 11 12 13 14 15 16 17 18 19 20 21 22
000
FTUS41 KLWX 181732
TAFIAD
TAF
KIAD 181732Z 1818/1924 22007KT P6SM SKC
     FM182200 18006KT P6SM SCT050
     FM190000 12005KT P6SM BKN050
     FM190700 19005KT P6SM BKN070
     FM191200 27015G25KT P6SM SCT050
     FM191600 29022G35KT P6SM BKN050=

USA.gov is the U.S. government's official web portal to all federal, state and local government web resources and services.